Time;durP1;ratioP1;P1;durP2;ratioP2;P2;SDS_P1;SDS_P2;PMS_P1;PMS_P2;Temp;Humidity;BMP_temperature;BMP_pressure;BME280_temperature;BME280_humidity;BME280_pressure;Samples;Min_cycle;Max_cycle;Signal;HPM_P1;HPM_P2
2022/03/16 00:00:02;;;;;;;38.27;21.67;;;;;;;14.37;100.00;102320.16;5092318;28;20317;-47
2022/03/16 00:02:37;;;;;;;44.42;22.67;;;;;;;14.34;100.00;102321.41;5082326;28;20040;-50
2022/03/16 00:05:03;;;;;;;39.40;22.17;;;;;;;14.46;100.00;102324.47;5084234;28;20040;-49
2022/03/16 00:07:29;;;;;;;36.30;21.50;;;;;;;14.55;100.00;102322.53;5088821;28;20040;-48
2022/03/16 00:09:55;;;;;;;43.80;23.80;;;;;;;14.17;100.00;102321.56;5078119;28;20033;-50
2022/03/16 00:12:20;;;;;;;39.73;22.10;;;;;;;14.19;100.00;102322.19;5090037;28;20033;-51
2022/03/16 00:14:46;;;;;;;49.00;24.77;;;;;;;14.27;100.00;102325.81;5083230;28;20036;-49
2022/03/16 00:17:12;;;;;;;49.85;23.77;;;;;;;14.27;100.00;102326.66;5082804;28;20041;-52
2022/03/16 00:19:39;;;;;;;50.92;25.85;;;;;;;14.13;100.00;102330.16;5090094;28;20109;-52
2022/03/16 00:22:05;;;;;;;49.75;25.63;;;;;;;13.87;100.00;102329.56;5077744;28;20316;-48
2022/03/16 00:24:31;;;;;;;56.15;26.13;;;;;;;13.94;100.00;102337.72;5088197;28;20071;-51
2022/03/16 00:26:57;;;;;;;49.17;25.92;;;;;;;13.78;100.00;102333.31;5084525;28;20067;-47
2022/03/16 00:29:23;;;;;;;46.45;26.42;;;;;;;13.82;100.00;102337.31;5081335;28;20037;-50
2022/03/16 00:31:51;;;;;;;52.58;27.08;;;;;;;13.69;100.00;102343.28;5091079;28;20047;-48
2022/03/16 00:34:16;;;;;;;55.00;27.00;;;;;;;13.95;100.00;102339.38;5078613;28;20067;-49
2022/03/16 00:36:42;;;;;;;52.57;27.03;;;;;;;13.95;100.00;102336.69;5085723;28;20041;-47
2022/03/16 00:39:07;;;;;;;57.43;26.57;;;;;;;14.03;100.00;102338.50;5085677;28;20036;-52
2022/03/16 00:41:34;;;;;;;45.22;25.40;;;;;;;14.04;100.00;102332.09;5079621;28;20325;-52
2022/03/16 00:44:00;;;;;;;53.70;26.52;;;;;;;13.89;100.00;102335.59;5090884;28;20037;-47
2022/03/16 00:46:26;;;;;;;46.97;26.13;;;;;;;13.91;100.00;102328.19;5079087;28;20058;-49
2022/03/16 00:48:51;;;;;;;54.77;26.67;;;;;;;13.87;100.00;102326.03;5085582;28;20048;-50
2022/03/16 00:51:17;;;;;;;55.00;26.10;;;;;;;13.99;100.00;102332.66;5085997;28;20100;-48
2022/03/16 00:53:45;;;;;;;51.10;26.97;;;;;;;13.64;100.00;102340.31;5077398;28;20274;-46
2022/03/16 00:56:11;;;;;;;50.55;26.92;;;;;;;13.66;100.00;102337.47;5089827;28;20057;-47
2022/03/16 00:58:36;;;;;;;55.28;28.05;;;;;;;13.77;100.00;102342.41;5082866;28;20051;-47
2022/03/16 01:01:04;;;;;;;49.73;25.80;;;;;;;13.93;100.00;102340.59;5088157;28;20033;-47
2022/03/16 01:03:30;;;;;;;46.88;25.58;;;;;;;13.79;100.00;102337.69;5092449;28;20107;-47
2022/03/16 01:05:56;;;;;;;53.40;27.98;;;;;;;13.74;100.00;102342.75;5080682;28;20029;-47
2022/03/16 01:08:22;;;;;;;48.35;26.35;;;;;;;13.76;100.00;102338.91;5093524;28;20093;-48
2022/03/16 01:10:48;;;;;;;49.13;26.25;;;;;;;13.68;100.00;102338.13;5086504;28;20047;-51
2022/03/16 01:13:14;;;;;;;50.17;27.05;;;;;;;13.60;100.00;102339.00;5068827;28;20040;-48
2022/03/16 01:15:40;;;;;;;65.45;29.13;;;;;;;13.45;100.00;102326.31;5092848;28;20039;-47
2022/03/16 01:18:06;;;;;;;60.47;29.05;;;;;;;13.44;100.00;102335.41;5081278;28;20046;-50
2022/03/16 01:20:31;;;;;;;53.90;27.53;;;;;;;13.23;100.00;102325.28;5091736;28;20037;-50
2022/03/16 01:22:57;;;;;;;61.42;29.70;;;;;;;13.19;100.00;102318.59;5077910;28;20056;-47
2022/03/16 01:25:24;;;;;;;56.08;29.50;;;;;;;13.42;100.00;102323.16;5090276;28;20063;-46
2022/03/16 01:27:50;;;;;;;54.67;28.08;;;;;;;13.50;100.00;102322.28;5080474;28;20041;-47
2022/03/16 01:30:15;;;;;;;65.00;30.03;;;;;;;13.50;100.00;102328.47;5094126;28;20039;-49
2022/03/16 01:32:42;;;;;;;;;;;;;;;13.38;100.00;102322.66;5085670;28;20036;-47
2022/03/16 01:35:09;;;;;;;57.63;30.20;;;;;;;13.33;100.00;102320.50;5086743;28;19912;-52
2022/03/16 01:37:35;;;;;;;59.95;29.95;;;;;;;13.33;100.00;102320.50;5092401;28;20111;-47
2022/03/16 01:40:01;;;;;;;61.75;29.10;;;;;;;12.65;100.00;102320.13;5080766;28;20096;-48
2022/03/16 01:42:27;;;;;;;72.10;31.77;;;;;;;13.09;100.00;102315.25;5096314;28;20028;-47
2022/03/16 01:44:57;;;;;;;59.67;29.67;;;;;;;13.27;100.00;102315.00;5088618;28;20045;-47
2022/03/16 01:47:24;;;;;;;67.68;30.83;;;;;;;13.13;100.00;102319.25;5090589;28;20096;-51
2022/03/16 01:49:52;;;;;;;57.03;29.25;;;;;;;13.13;100.00;102308.53;5079953;28;20124;-49
2022/03/16 01:52:26;;;;;;;62.85;29.58;;;;;;;13.02;100.00;102310.59;5093311;28;20033;-48
2022/03/16 01:54:52;;;;;;;62.00;28.95;;;;;;;13.02;100.00;102302.53;5086034;28;20040;-52
2022/03/16 01:57:18;;;;;;;58.50;29.42;;;;;;;13.08;100.00;102313.59;5084276;28;20045;-48
2022/03/16 01:59:45;;;;;;;54.10;28.00;;;;;;;13.23;100.00;102297.56;5092383;28;20101;-47
2022/03/16 02:02:13;;;;;;;55.92;28.13;;;;;;;13.11;100.00;102300.66;5077252;28;20028;-48
2022/03/16 02:04:40;;;;;;;49.88;28.33;;;;;;;13.00;100.00;102296.50;5083162;28;20029;-49
2022/03/16 02:07:06;;;;;;;50.85;27.40;;;;;;;13.02;100.00;102299.84;5086441;28;20029;-51
2022/03/16 02:09:32;;;;;;;51.33;27.95;;;;;;;13.10;100.00;102298.97;5089150;28;20070;-51
2022/03/16 02:11:57;;;;;;;52.83;27.33;;;;;;;13.05;100.00;102290.63;5080133;28;20033;-50
2022/03/16 02:14:23;;;;;;;51.00;25.60;;;;;;;13.05;100.00;102296.00;5092506;28;20036;-50
2022/03/16 02:16:49;;;;;;;51.03;26.42;;;;;;;13.03;100.00;102295.31;5079130;28;20037;-49
2022/03/16 02:19:15;;;;;;;51.85;26.45;;;;;;;12.98;100.00;102290.47;5076845;28;20071;-48
2022/03/16 02:21:44;;;;;;;46.97;25.25;;;;;;;12.96;100.00;102283.59;5091987;28;20052;-48
2022/03/16 02:24:10;;;;;;;50.00;25.40;;;;;;;12.95;100.00;102281.94;5079952;28;20080;-48
2022/03/16 02:26:36;;;;;;;51.83;25.50;;;;;;;12.94;100.00;102278.44;5090482;28;20029;-47
2022/03/16 02:29:01;;;;;;;52.07;26.10;;;;;;;12.94;100.00;102273.06;5086542;28;20107;-47
2022/03/16 02:31:27;;;;;;;48.33;25.73;;;;;;;12.84;100.00;102267.91;5083543;28;20063;-46
2022/03/16 02:33:53;;;;;;;50.08;25.60;;;;;;;12.86;100.00;102267.72;5093249;28;20126;-51
2022/03/16 02:36:19;;;;;;;49.97;25.20;;;;;;;12.83;100.00;102262.69;5080174;28;20028;-50
2022/03/16 02:38:44;;;;;;;48.75;25.50;;;;;;;12.70;100.00;102261.44;5089312;28;20096;-50
2022/03/16 02:41:10;;;;;;;54.42;26.42;;;;;;;12.60;100.00;102266.16;5087646;28;20044;-48
2022/03/16 02:43:36;;;;;;;53.33;25.85;;;;;;;12.59;100.00;102267.16;5082183;28;20052;-47
2022/03/16 02:46:03;;;;;;;49.92;26.70;;;;;;;12.70;100.00;102263.25;5092955;28;20028;-50
2022/03/16 02:48:28;;;;;;;56.15;28.30;;;;;;;12.64;100.00;102274.69;5081326;28;20024;-50
2022/03/16 02:50:53;;;;;;;57.03;29.70;;;;;;;12.61;100.00;102270.50;5088024;28;20070;-50
2022/03/16 02:53:19;;;;;;;59.88;29.05;;;;;;;12.70;100.00;102263.25;5076580;28;20053;-49
2022/03/16 02:55:45;;;;;;;56.60;28.90;;;;;;;12.80;100.00;102268.41;5091776;28;20040;-49
2022/03/16 02:58:12;;;;;;;63.78;30.70;;;;;;;12.69;100.00;102269.66;5079403;28;20045;-51
2022/03/16 03:00:38;;;;;;;59.90;29.42;;;;;;;12.66;100.00;102259.25;5089889;28;20065;-51
2022/03/16 03:03:03;;;;;;;53.77;28.20;;;;;;;12.66;100.00;102260.06;5086030;28;20035;-47
2022/03/16 03:05:29;;;;;;;55.60;27.40;;;;;;;11.56;100.00;102256.94;5082935;28;20036;-48
2022/03/16 03:07:54;;;;;;;50.70;26.30;;;;;;;12.46;100.00;102265.03;5092843;28;20036;-48
2022/03/16 03:10:21;;;;;;;56.20;28.00;;;;;;;12.51;100.00;102272.56;5075831;28;20272;-47
2022/03/16 03:12:47;;;;;;;52.40;28.07;;;;;;;12.67;100.00;102272.50;5083265;28;20041;-47
2022/03/16 03:15:13;;;;;;;54.97;27.17;;;;;;;12.67;100.00;102271.66;5084940;28;20097;-49
2022/03/16 03:17:41;;;;;;;50.78;27.02;;;;;;;12.59;100.00;102272.53;5090454;28;20055;-50
2022/03/16 03:20:07;;;;;;;51.50;27.35;;;;;;;12.61;100.00;102278.56;5078597;28;20043;-50
2022/03/16 03:22:33;;;;;;;59.53;29.80;;;;;;;12.46;100.00;102279.31;5090239;28;20113;-47
2022/03/16 03:24:59;;;;;;;59.80;28.90;;;;;;;12.48;100.00;102263.88;5084810;28;20040;-48
2022/03/16 03:27:24;;;;;;;55.33;26.67;;;;;;;12.47;100.00;102264.88;5083256;28;20298;-48
2022/03/16 03:29:51;;;;;;;55.97;28.05;;;;;;;12.47;100.00;102262.19;5087666;28;20033;-48
2022/03/16 03:32:17;;;;;;;54.70;26.35;;;;;;;12.45;100.00;102258.81;5091836;28;20040;-49
2022/03/16 03:34:46;;;;;;;56.10;27.50;;;;;;;12.39;100.00;102254.16;5082427;28;20036;-47
2022/03/16 03:37:13;;;;;;;51.63;26.20;;;;;;;12.32;100.00;102259.38;5084766;28;20304;-50
2022/03/16 03:39:39;;;;;;;50.70;25.67;;;;;;;12.33;100.00;102247.63;5089863;28;20043;-49
2022/03/16 03:42:05;;;;;;;52.60;25.65;;;;;;;12.28;100.00;102249.16;5077690;28;20041;-49
2022/03/16 03:44:30;;;;;;;47.35;24.60;;;;;;;12.26;100.00;102245.81;5090283;28;20021;-48
2022/03/16 03:46:56;;;;;;;46.67;24.60;;;;;;;12.19;100.00;102251.84;5084057;28;20079;-49
2022/03/16 03:49:21;;;;;;;47.53;24.20;;;;;;;12.22;100.00;102248.00;5083314;28;20033;-50
2022/03/16 03:51:47;;;;;;;50.30;24.87;;;;;;;12.04;100.00;102241.00;5091006;28;20040;-51
2022/03/16 03:54:13;;;;;;;46.10;25.57;;;;;;;11.99;100.00;102243.31;5078132;28;20036;-52
2022/03/16 03:56:38;;;;;;;47.80;23.97;;;;;;;11.85;100.00;102242.19;5088986;28;20350;-46
2022/03/16 03:59:03;;;;;;;47.93;25.43;;;;;;;11.84;100.00;102240.50;5081657;28;20052;-47
2022/03/16 04:01:29;;;;;;;49.42;24.98;;;;;;;11.79;100.00;102236.66;5087697;28;20131;-48
2022/03/16 04:03:54;;;;;;;47.13;25.23;;;;;;;11.89;100.00;102248.88;5077414;28;20044;-49
2022/03/16 04:06:20;;;;;;;54.13;26.33;;;;;;;12.01;100.00;102243.19;5077981;28;20089;-48
2022/03/16 04:08:46;;;;;;;53.60;26.27;;;;;;;11.87;100.00;102240.16;5087868;28;20047;-52
2022/03/16 04:11:12;;;;;;;55.03;25.77;;;;;;;11.85;100.00;102242.19;5085411;28;20058;-52
2022/03/16 04:13:37;;;;;;;48.83;24.45;;;;;;;11.94;100.00;102240.31;5080558;28;20063;-48
2022/03/16 04:16:03;;;;;;;61.07;25.70;;;;;;;11.98;100.00;102248.84;5090058;28;20041;-48
2022/03/16 04:18:29;;;;;;;54.25;25.90;;;;;;;11.91;100.00;102243.34;5079242;28;20040;-51
2022/03/16 04:20:55;;;;;;;50.45;26.98;;;;;;;11.96;100.00;102238.31;5086483;28;20071;-50
2022/03/16 04:23:20;;;;;;;51.78;26.48;;;;;;;12.02;100.00;102250.25;5086756;28;20040;-47
2022/03/16 04:25:46;;;;;;;48.37;26.23;;;;;;;12.02;100.00;102245.69;5079418;28;20092;-50
2022/03/16 04:28:11;;;;;;;53.50;25.77;;;;;;;12.09;100.00;102248.53;5090881;28;20047;-47
2022/03/16 04:30:37;;;;;;;49.80;26.07;;;;;;;12.00;100.00;102253.03;5080189;28;20028;-50
2022/03/16 04:33:02;;;;;;;49.70;27.13;;;;;;;12.13;100.00;102252.53;5084708;28;20028;-45
2022/03/16 04:35:28;;;;;;;47.15;26.02;;;;;;;12.12;100.00;102256.25;5074401;28;20033;-52
2022/03/16 04:37:53;;;;;;;47.97;25.63;;;;;;;11.97;100.00;102255.22;5090711;28;20044;-50
2022/03/16 04:40:19;;;;;;;47.03;24.60;;;;;;;12.15;100.00;102265.78;5077338;28;20036;-48
2022/03/16 04:42:44;;;;;;;41.70;22.27;;;;;;;12.33;100.00;102260.22;5087461;28;20041;-47
2022/03/16 04:45:10;;;;;;;50.33;25.47;;;;;;;11.97;100.00;102250.72;5074182;28;20033;-51
2022/03/16 04:47:36;;;;;;;46.80;23.95;;;;;;;11.82;100.00;102253.25;5088097;28;20029;-52
2022/03/16 04:50:02;;;;;;;44.63;24.33;;;;;;;11.85;100.00;102250.22;5076556;28;20052;-49
2022/03/16 04:52:28;;;;;;;41.50;23.73;;;;;;;11.73;100.00;102248.88;5089798;28;20060;-46
2022/03/16 04:54:54;;;;;;;46.87;26.50;;;;;;;11.94;100.00;102250.19;5081562;28;20063;-46
2022/03/16 04:57:19;;;;;;;48.03;25.92;;;;;;;11.93;100.00;102249.38;5082649;28;20312;-47
2022/03/16 04:59:45;;;;;;;48.10;25.90;;;;;;;11.77;100.00;102250.25;5084842;28;20045;-48
2022/03/16 05:02:10;;;;;;;44.43;25.50;;;;;;;11.83;100.00;102256.75;5075760;28;20032;-47
2022/03/16 05:04:36;;;;;;;48.33;25.90;;;;;;;11.76;100.00;102252.06;5088929;28;20048;-47
2022/03/16 05:07:02;;;;;;;52.70;27.53;;;;;;;11.89;100.00;102250.72;5074266;28;20072;-46
2022/03/16 05:09:27;;;;;;;49.70;26.13;;;;;;;11.87;100.00;102247.34;5086771;28;20040;-47
2022/03/16 05:11:53;;;;;;;49.53;27.08;;;;;;;11.89;100.00;102254.22;5078243;28;20044;-50
2022/03/16 05:14:19;;;;;;;45.00;24.90;;;;;;;12.00;100.00;102239.63;5076685;28;20028;-50
2022/03/16 05:16:44;;;;;;;52.53;26.20;;;;;;;12.01;100.00;102244.03;5087613;28;20063;-46
2022/03/16 05:19:10;;;;;;;52.23;25.10;;;;;;;11.95;100.00;102243.81;5083299;28;20036;-47
2022/03/16 05:21:35;;;;;;;50.90;26.93;;;;;;;11.95;100.00;102249.19;5080355;28;20066;-47
2022/03/16 05:24:01;;;;;;;53.17;28.63;;;;;;;11.95;100.00;102254.56;5090361;28;20060;-48
2022/03/16 05:26:26;;;;;;;52.93;26.23;;;;;;;11.98;100.00;102256.88;5077880;28;20273;-48
2022/03/16 05:28:52;;;;;;;51.90;27.37;;;;;;;12.01;100.00;102259.28;5086622;28;20044;-47
2022/03/16 05:31:20;;;;;;;55.35;30.02;;;;;;;11.94;100.00;102260.91;5084961;28;20040;-46
2022/03/16 05:33:46;;;;;;;53.38;27.73;;;;;;;11.96;100.00;102257.06;5094173;28;20047;-48
2022/03/16 05:36:11;;;;;;;52.58;27.95;;;;;;;11.88;100.00;102252.56;5075161;28;20041;-49
2022/03/16 05:38:36;;;;;;;53.33;27.93;;;;;;;11.90;100.00;102250.53;5079215;28;20040;-49
2022/03/16 05:41:02;;;;;;;61.13;29.87;;;;;;;11.96;100.00;102257.06;5094149;28;20044;-50
2022/03/16 05:43:28;;;;;;;53.03;28.08;;;;;;;12.04;100.00;102257.09;5081977;28;20049;-47
2022/03/16 05:45:53;;;;;;;51.63;26.97;;;;;;;12.04;100.00;102257.09;5077788;28;20040;-48
2022/03/16 05:48:19;;;;;;;51.70;26.53;;;;;;;11.87;100.00;102256.25;5093759;28;20067;-49
2022/03/16 05:50:45;;;;;;;48.80;27.13;;;;;;;11.82;100.00;102258.59;5083636;28;20039;-47
2022/03/16 05:53:13;;;;;;;51.15;26.92;;;;;;;11.73;100.00;102260.44;5087484;28;20041;-47
2022/03/16 05:55:39;;;;;;;58.20;27.40;;;;;;;10.65;100.00;102256.75;5077252;28;20045;-50
2022/03/16 05:58:05;;;;;;;47.13;26.08;;;;;;;11.23;100.00;102258.75;5077147;28;20048;-48
2022/03/16 06:00:31;;;;;;;50.08;24.92;;;;;;;10.46;100.00;102258.66;5081675;28;20104;-49
2022/03/16 06:02:57;;;;;;;44.57;23.60;;;;;;;10.53;100.00;102256.19;5097605;28;20028;-47
2022/03/16 06:05:24;;;;;;;44.78;22.83;;;;;;;10.60;100.00;102257.22;5085771;28;20033;-48
2022/03/16 06:07:49;;;;;;;42.22;22.10;;;;;;;10.66;100.00;102253.06;5077278;28;20037;-51
2022/03/16 06:10:17;;;;;;;41.50;21.13;;;;;;;10.50;100.00;102253.00;5095585;28;20056;-50
2022/03/16 06:12:52;;;;;;;41.50;22.58;;;;;;;10.60;100.00;102259.03;5091193;28;20036;-46
2022/03/16 06:15:18;;;;;;;42.83;22.13;;;;;;;10.82;100.00;102260.31;5077251;28;20032;-49
2022/03/16 06:17:44;;;;;;;;;;;;;;;10.78;100.00;102260.78;5091590;28;20037;-50
2022/03/16 06:20:10;;;;;;;37.23;20.00;;;;;;;10.93;100.00;102261.84;5079965;28;19935;-46
2022/03/16 06:22:36;;;;;;;40.85;19.67;;;;;;;11.03;100.00;102270.56;5091860;28;20059;-50
2022/03/16 06:25:02;;;;;;;33.00;17.73;;;;;;;11.12;100.00;102266.06;5085252;28;20041;-49
2022/03/16 06:27:27;;;;;;;36.60;18.33;;;;;;;11.08;100.00;102269.25;5084812;28;20349;-51
2022/03/16 06:29:53;;;;;;;37.93;18.33;;;;;;;11.17;100.00;102271.78;5092213;28;20092;-47
2022/03/16 06:32:18;;;;;;;33.27;17.20;;;;;;;10.96;100.00;102261.53;5077505;28;20041;-52
2022/03/16 06:34:45;;;;;;;32.30;16.25;;;;;;;11.10;100.00;102269.94;5082728;28;20036;-52
2022/03/16 06:37:11;;;;;;;32.88;18.05;;;;;;;11.13;100.00;102274.97;5086901;28;20040;-46
2022/03/16 06:39:37;;;;;;;31.50;16.47;;;;;;;11.33;100.00;102281.69;5089780;28;20060;-51
2022/03/16 06:42:03;;;;;;;29.75;16.25;;;;;;;11.17;100.00;102276.31;5079731;28;20047;-47
2022/03/16 06:44:29;;;;;;;30.77;15.13;;;;;;;11.34;100.00;102274.47;5092294;28;20449;-49
2022/03/16 06:46:54;;;;;;;30.70;15.97;;;;;;;11.55;100.00;102282.06;5080758;28;20024;-51
2022/03/16 06:49:19;;;;;;;32.47;16.63;;;;;;;11.52;100.00;102278.88;5087312;28;20037;-47
2022/03/16 06:51:45;;;;;;;29.75;15.48;;;;;;;11.53;100.00;102276.00;5081780;28;20094;-54
2022/03/16 06:54:10;;;;;;;29.30;14.97;;;;;;;11.53;100.00;102281.38;5077125;28;20052;-48
2022/03/16 06:56:36;;;;;;;24.65;14.65;;;;;;;11.62;100.00;102284.88;5090670;28;20112;-49
2022/03/16 06:59:02;;;;;;;29.80;15.40;;;;;;;11.60;100.00;102290.44;5084687;28;20044;-50
2022/03/16 07:01:27;;;;;;;27.53;14.50;;;;;;;11.50;100.00;102288.91;5084281;28;20040;-53
2022/03/16 07:03:52;;;;;;;27.17;14.50;;;;;;;11.48;100.00;102289.91;5091782;28;20067;-47
2022/03/16 07:06:18;;;;;;;29.43;14.80;;;;;;;11.53;100.00;102289.41;5079237;28;20029;-47
2022/03/16 07:08:44;;;;;;;31.70;15.15;;;;;;;11.68;100.00;102286.06;5090248;28;20048;-48
2022/03/16 07:11:09;;;;;;;24.57;14.47;;;;;;;11.79;100.00;102284.91;5085128;28;20050;-51
2022/03/16 07:13:35;;;;;;;28.70;15.27;;;;;;;11.88;100.00;102278.53;5082963;28;20060;-48
2022/03/16 07:16:00;;;;;;;33.27;16.60;;;;;;;11.91;100.00;102270.97;5091954;28;20044;-48
2022/03/16 07:18:25;;;;;;;33.80;14.53;;;;;;;11.91;100.00;102273.66;5078819;28;20039;-53
2022/03/16 07:20:51;;;;;;;26.27;14.30;;;;;;;12.09;100.00;102270.00;5088974;28;20060;-49
2022/03/16 07:23:18;;;;;;;23.92;13.27;;;;;;;12.23;100.00;102265.78;5086012;28;20048;-49
2022/03/16 07:25:48;;;;;;;31.77;15.52;;;;;;;12.18;100.00;102268.94;5081714;28;20071;-49
2022/03/16 07:28:15;;;;;;;28.55;13.20;;;;;;;12.41;100.00;102268.22;5091780;28;20020;-47
2022/03/16 07:30:41;;;;;;;;;;;;;;;12.33;100.00;102255.66;5081005;28;20105;-48
2022/03/16 07:33:08;;;;;;;23.05;13.25;;;;;;;12.46;100.00;102249.78;5086433;28;19935;-47
2022/03/16 07:35:34;;;;;;;22.75;12.73;;;;;;;12.27;100.00;102239.44;5087606;28;20479;-48
2022/03/16 07:38:02;;;;;;;23.42;12.82;;;;;;;12.44;100.00;102227.63;5079247;28;20062;-50
2022/03/16 07:40:33;;;;;;;22.42;11.55;;;;;;;12.48;100.00;102228.97;5065921;28;20479;-49
2022/03/16 07:42:59;;;;;;;25.58;12.18;;;;;;;12.64;100.00;102219.16;5087563;28;20099;-52
2022/03/16 07:45:25;;;;;;;19.33;10.95;;;;;;;12.89;100.00;102221.72;5086326;28;20036;-48
2022/03/16 07:47:53;;;;;;;22.65;11.60;;;;;;;12.99;100.00;102216.97;5080118;28;20048;-49
2022/03/16 07:50:20;;;;;;;22.40;11.45;;;;;;;13.89;100.00;102217.28;5090987;28;20059;-48
2022/03/16 07:52:46;;;;;;;22.88;10.25;;;;;;;13.97;100.00;102207.44;5074880;28;20037;-48
2022/03/16 07:55:14;;;;;;;18.63;11.05;;;;;;;13.94;100.00;102213.19;5084277;28;20040;-51
2022/03/16 07:57:40;;;;;;;21.15;10.35;;;;;;;14.12;96.57;102215.50;5081507;28;20021;-47
2022/03/16 08:00:10;;;;;;;15.55;9.00;;;;;;;14.02;99.59;102210.41;5091144;28;20048;-50
2022/03/16 08:02:36;;;;;;;18.67;8.93;;;;;;;13.96;100.00;102208.47;5070339;28;20032;-51
2022/03/16 08:05:02;;;;;;;15.48;9.20;;;;;;;14.02;100.00;102205.88;5082600;28;20071;-49
2022/03/16 08:07:29;;;;;;;16.60;8.70;;;;;;;14.22;94.55;102207.16;5082687;28;20048;-51
2022/03/16 08:09:57;;;;;;;19.35;8.40;;;;;;;13.93;97.84;102206.97;5090149;28;20028;-50
2022/03/16 08:12:22;;;;;;;16.02;8.48;;;;;;;14.03;100.00;102206.69;5075397;28;20057;-52
2022/03/16 08:14:48;;;;;;;15.90;8.40;;;;;;;14.28;95.76;102214.47;5080695;28;20049;-55
2022/03/16 08:17:13;;;;;;;20.50;8.35;;;;;;;14.47;93.11;102211.22;5084556;28;20033;-53
2022/03/16 08:19:39;;;;;;;17.30;8.50;;;;;;;13.96;95.80;102216.53;5087576;28;20047;-48
2022/03/16 08:22:04;;;;;;;13.33;7.80;;;;;;;13.97;95.52;102208.28;5077662;28;20052;-47
2022/03/16 08:24:30;;;;;;;14.90;8.33;;;;;;;14.37;92.29;102209.84;5090997;28;20274;-51
2022/03/16 08:26:55;;;;;;;14.82;9.30;;;;;;;14.83;86.05;102217.66;5081546;28;20095;-50
2022/03/16 08:29:21;;;;;;;18.63;9.35;;;;;;;14.27;92.80;102207.44;5083887;28;20044;-52
2022/03/16 08:31:47;;;;;;;15.02;8.15;;;;;;;14.78;86.29;102201.25;5088493;28;20043;-48
2022/03/16 08:34:12;;;;;;;21.27;9.33;;;;;;;14.39;91.02;102205.09;5077319;28;20056;-53
2022/03/16 08:36:39;;;;;;;16.10;9.32;;;;;;;14.28;88.95;102206.41;5089728;28;20063;-49
2022/03/16 08:39:05;;;;;;;17.40;9.20;;;;;;;14.51;89.92;102208.13;5082609;28;20040;-50
2022/03/16 08:41:34;;;;;;;20.70;9.73;;;;;;;14.32;92.30;102205.03;5082464;28;20049;-50
2022/03/16 08:44:00;;;;;;;19.67;8.80;;;;;;;14.62;90.45;102199.59;5089993;28;20076;-51
2022/03/16 08:46:26;;;;;;;15.20;8.48;;;;;;;14.86;86.25;102206.50;5076910;28;20275;-52
2022/03/16 08:48:51;;;;;;;16.90;9.32;;;;;;;14.88;85.72;102203.63;5087551;28;20051;-52
2022/03/16 08:51:17;;;;;;;14.97;8.87;;;;;;;14.23;91.79;102206.13;5083857;28;20028;-48
2022/03/16 08:53:42;;;;;;;15.07;9.20;;;;;;;14.64;90.15;102194.84;5080904;28;20096;-50
2022/03/16 08:56:11;;;;;;;18.83;9.67;;;;;;;14.77;88.59;102194.19;5090724;28;20037;-50
2022/03/16 08:58:37;;;;;;;15.90;9.07;;;;;;;15.00;87.10;102185.13;5089642;28;20058;-50
2022/03/16 09:01:02;;;;;;;16.42;9.23;;;;;;;15.77;79.69;102198.81;5073539;28;20048;-53
2022/03/16 09:03:28;;;;;;;17.42;9.35;;;;;;;16.25;72.63;102199.97;5085653;28;20038;-50
2022/03/16 09:05:54;;;;;;;15.95;8.52;;;;;;;16.09;72.83;102201.13;5079302;28;20079;-51
2022/03/16 09:08:19;;;;;;;17.77;9.70;;;;;;;16.76;69.07;102191.41;5089342;28;20047;-52
2022/03/16 09:10:47;;;;;;;17.35;9.52;;;;;;;17.07;64.80;102200.03;5079129;28;20101;-51
2022/03/16 09:13:15;;;;;;;15.33;9.13;;;;;;;18.00;60.97;102201.03;5084506;28;20044;-50
2022/03/16 09:15:44;;;;;;;19.30;8.77;;;;;;;17.90;58.68;102206.88;5086812;28;20261;-50
2022/03/16 09:18:11;;;;;;;14.00;8.57;;;;;;;18.38;57.28;102214.91;5077109;28;20298;-50
2022/03/16 09:20:39;;;;;;;16.57;9.00;;;;;;;18.46;56.06;102211.94;5093530;28;20270;-48
2022/03/16 09:23:05;;;;;;;15.07;8.80;;;;;;;19.08;53.12;102218.72;5085830;28;20304;-48
2022/03/16 09:25:31;;;;;;;18.48;9.32;;;;;;;18.78;52.76;102210.13;5085213;28;20270;-51
2022/03/16 09:27:57;;;;;;;;;;;;;;;19.11;50.90;102207.44;5089944;28;20415;-50
2022/03/16 09:30:23;;;;;;;13.27;8.70;;;;;;;19.91;49.17;102204.06;5093900;28;19927;-50
2022/03/16 09:32:48;;;;;;;12.77;8.55;;;;;;;18.91;49.44;102219.19;5082804;28;20036;-47
2022/03/16 09:35:14;;;;;;;16.90;8.90;;;;;;;19.44;50.25;102206.34;5088299;28;20041;-46
2022/03/16 09:37:40;;;;;;;17.88;9.13;;;;;;;19.76;49.05;102211.69;5090316;28;20078;-50
2022/03/16 09:40:07;;;;;;;13.85;8.57;;;;;;;20.15;46.73;102222.38;5097611;28;20041;-48
2022/03/16 09:42:33;;;;;;;;;;;;;;;20.08;46.49;102236.03;5064925;28;20147;-45
2022/03/16 09:45:02;;;;;;;14.33;9.07;;;;;;;19.80;47.57;102228.38;5090265;28;19920;-50
2022/03/16 09:47:29;;;;;;;15.23;9.57;;;;;;;20.29;46.83;102215.75;5088343;28;20063;-49
2022/03/16 09:49:55;;;;;;;13.73;8.63;;;;;;;21.05;44.58;102212.66;5082749;28;20100;-49
2022/03/16 09:52:23;;;;;;;13.90;8.80;;;;;;;21.44;43.18;102211.41;5083740;28;20039;-49
2022/03/16 09:54:48;;;;;;;14.07;8.83;;;;;;;22.13;41.58;102207.25;5067963;28;20055;-50
2022/03/16 09:57:13;;;;;;;15.70;9.07;;;;;;;22.19;40.77;102201.66;5065542;28;20037;-49
2022/03/16 09:59:39;;;;;;;15.98;8.30;;;;;;;20.86;42.69;102216.50;5071586;28;20282;-51
2022/03/16 10:02:06;;;;;;;14.77;8.85;;;;;;;21.76;42.16;102202.94;5067892;28;20064;-48
2022/03/16 10:04:35;;;;;;;11.77;8.40;;;;;;;23.42;39.20;102211.53;5076939;28;20057;-49
2022/03/16 10:07:01;;;;;;;13.60;8.90;;;;;;;24.18;37.74;102212.88;5077141;28;20060;-50
2022/03/16 10:15:10;;;;;;;13.20;8.75;;;;;;;24.10;37.45;102205.97;5078530;28;20039;-51
2022/03/16 10:17:44;;;;;;;13.80;8.20;;;;;;;24.80;35.34;102216.34;5087786;28;20029;-49
2022/03/16 10:20:33;;;;;;;13.77;8.80;;;;;;;25.14;34.75;102205.13;5079766;28;20032;-51
2022/03/16 10:23:02;;;;;;;12.67;8.63;;;;;;;25.37;34.53;102205.00;5089618;28;20040;-49
2022/03/16 10:25:30;;;;;;;14.40;8.57;;;;;;;24.84;34.79;102205.69;5075708;28;20037;-50
2022/03/16 10:28:10;;;;;;;13.63;8.43;;;;;;;25.26;33.75;102198.63;5062090;28;20029;-48
2022/03/16 10:30:50;;;;;;;12.03;8.10;;;;;;;24.75;33.61;102206.16;5087058;28;20037;-50
2022/03/16 10:33:16;;;;;;;12.57;8.23;;;;;;;24.45;34.67;102209.38;5087084;28;20048;-52
2022/03/16 10:36:05;;;;;;;15.93;8.97;;;;;;;23.01;36.25;102207.03;5072534;28;20041;-50
2022/03/16 10:38:42;;;;;;;19.17;9.73;;;;;;;23.58;35.34;102202.50;5079454;28;20028;-50
2022/03/16 10:46:50;;;;;;;14.52;8.52;;;;;;;24.49;34.20;102184.00;5081677;28;20024;-48
2022/03/16 10:49:17;;;;;;;;;;;;;;;24.02;34.06;102179.91;5087042;28;20067;-52
2022/03/16 10:51:58;;;;;;;15.47;8.10;;;;;;;24.69;33.25;102182.56;5088652;28;19916;-51
2022/03/16 10:54:24;;;;;;;16.17;8.37;;;;;;;25.51;32.67;102183.53;5078981;28;20045;-51
2022/03/16 10:56:50;;;;;;;;;;;;;;;25.73;32.66;102180.63;5090682;28;20035;-48
2022/03/16 10:59:17;;;;;;;16.13;8.88;;;;;;;25.70;31.81;102168.28;5085148;28;19912;-48
2022/03/16 11:01:45;;;;;;;13.52;8.95;;;;;;;27.48;30.75;102173.78;5068621;28;20108;-53
2022/03/16 11:04:10;;;;;;;15.30;8.50;;;;;;;27.23;29.71;102177.41;5075046;28;20033;-53
2022/03/16 11:06:36;;;;;;;13.48;7.93;;;;;;;26.96;30.20;102178.53;5092327;28;20033;-48
2022/03/16 11:09:03;;;;;;;14.77;8.32;;;;;;;27.84;29.24;102165.44;5076013;28;20055;-48
2022/03/16 11:14:13;;;;;;;15.33;8.20;;;;;;;29.13;27.67;102171.25;5079175;28;20040;-51
2022/03/16 11:16:40;;;;;;;11.50;7.93;;;;;;;27.52;28.97;102166.66;5091804;28;20033;-49